sensor_id;sensor_type;location;lat;lon;timestamp;P1;durP1;ratioP1;P2;durP2;ratioP2
635;SDS011;302;50.206;8.196;2023-02-28T00:00:37;4.63;;;4.10;;
635;SDS011;302;50.206;8.196;2023-02-28T00:03:02;4.30;;;3.97;;
635;SDS011;302;50.206;8.196;2023-02-28T00:05:28;4.60;;;4.30;;
635;SDS011;302;50.206;8.196;2023-02-28T00:07:53;4.67;;;4.10;;
635;SDS011;302;50.206;8.196;2023-02-28T00:10:20;4.73;;;4.33;;
635;SDS011;302;50.206;8.196;2023-02-28T00:12:46;4.35;;;3.95;;
635;SDS011;302;50.206;8.196;2023-02-28T00:15:11;4.90;;;4.50;;
635;SDS011;302;50.206;8.196;2023-02-28T00:17:37;4.00;;;3.70;;
635;SDS011;302;50.206;8.196;2023-02-28T00:20:03;5.13;;;4.30;;
635;SDS011;302;50.206;8.196;2023-02-28T00:22:35;4.47;;;4.18;;
635;SDS011;302;50.206;8.196;2023-02-28T00:25:00;4.77;;;4.37;;
635;SDS011;302;50.206;8.196;2023-02-28T00:27:26;5.33;;;4.13;;
635;SDS011;302;50.206;8.196;2023-02-28T00:29:51;5.05;;;4.40;;
635;SDS011;302;50.206;8.196;2023-02-28T00:32:16;5.50;;;5.10;;
635;SDS011;302;50.206;8.196;2023-02-28T00:34:41;5.60;;;5.10;;
635;SDS011;302;50.206;8.196;2023-02-28T00:37:07;5.93;;;5.35;;
635;SDS011;302;50.206;8.196;2023-02-28T00:39:35;6.97;;;5.60;;
635;SDS011;302;50.206;8.196;2023-02-28T00:42:01;5.93;;;5.43;;
635;SDS011;302;50.206;8.196;2023-02-28T00:44:27;5.50;;;5.10;;
635;SDS011;302;50.206;8.196;2023-02-28T00:46:52;5.87;;;5.37;;
635;SDS011;302;50.206;8.196;2023-02-28T00:49:19;7.10;;;6.43;;
635;SDS011;302;50.206;8.196;2023-02-28T00:51:44;6.17;;;5.60;;
635;SDS011;302;50.206;8.196;2023-02-28T00:54:09;5.72;;;5.32;;
635;SDS011;302;50.206;8.196;2023-02-28T00:56:34;5.88;;;5.40;;
635;SDS011;302;50.206;8.196;2023-02-28T00:58:59;6.57;;;5.97;;
635;SDS011;302;50.206;8.196;2023-02-28T01:01:24;7.07;;;6.53;;
635;SDS011;302;50.206;8.196;2023-02-28T01:03:49;6.60;;;6.10;;
635;SDS011;302;50.206;8.196;2023-02-28T01:06:15;6.70;;;6.10;;
635;SDS011;302;50.206;8.196;2023-02-28T01:08:40;6.00;;;5.50;;
635;SDS011;302;50.206;8.196;2023-02-28T01:11:09;6.00;;;5.23;;
635;SDS011;302;50.206;8.196;2023-02-28T01:13:34;6.75;;;6.18;;
635;SDS011;302;50.206;8.196;2023-02-28T01:16:00;7.40;;;6.85;;
635;SDS011;302;50.206;8.196;2023-02-28T01:18:25;7.30;;;6.65;;
635;SDS011;302;50.206;8.196;2023-02-28T01:20:50;7.30;;;6.80;;
635;SDS011;302;50.206;8.196;2023-02-28T01:23:17;7.40;;;6.80;;
635;SDS011;302;50.206;8.196;2023-02-28T01:25:43;7.05;;;6.45;;
635;SDS011;302;50.206;8.196;2023-02-28T01:28:08;7.70;;;7.13;;
635;SDS011;302;50.206;8.196;2023-02-28T01:30:33;7.90;;;7.20;;
635;SDS011;302;50.206;8.196;2023-02-28T01:32:58;8.20;;;7.60;;
635;SDS011;302;50.206;8.196;2023-02-28T01:35:23;8.15;;;7.55;;
635;SDS011;302;50.206;8.196;2023-02-28T01:37:48;7.85;;;7.20;;
635;SDS011;302;50.206;8.196;2023-02-28T01:40:13;8.02;;;7.38;;
635;SDS011;302;50.206;8.196;2023-02-28T01:42:39;8.83;;;7.97;;
635;SDS011;302;50.206;8.196;2023-02-28T01:47:48;8.85;;;8.05;;
635;SDS011;302;50.206;8.196;2023-02-28T01:50:16;8.95;;;8.15;;
635;SDS011;302;50.206;8.196;2023-02-28T01:52:42;8.32;;;7.65;;
635;SDS011;302;50.206;8.196;2023-02-28T01:55:08;9.93;;;8.10;;
635;SDS011;302;50.206;8.196;2023-02-28T01:57:35;7.70;;;7.10;;
635;SDS011;302;50.206;8.196;2023-02-28T02:00:21;8.98;;;8.18;;
635;SDS011;302;50.206;8.196;2023-02-28T02:02:48;8.88;;;8.10;;
635;SDS011;302;50.206;8.196;2023-02-28T02:05:16;9.40;;;8.60;;
635;SDS011;302;50.206;8.196;2023-02-28T02:07:43;9.20;;;8.40;;
635;SDS011;302;50.206;8.196;2023-02-28T02:15:25;8.50;;;7.80;;
635;SDS011;302;50.206;8.196;2023-02-28T02:17:56;9.02;;;8.27;;
635;SDS011;302;50.206;8.196;2023-02-28T02:23:07;9.77;;;8.90;;
635;SDS011;302;50.206;8.196;2023-02-28T02:25:42;9.52;;;8.70;;
635;SDS011;302;50.206;8.196;2023-02-28T02:30:55;9.30;;;8.45;;
635;SDS011;302;50.206;8.196;2023-02-28T02:33:26;8.38;;;7.68;;
635;SDS011;302;50.206;8.196;2023-02-28T02:36:10;8.45;;;7.85;;
635;SDS011;302;50.206;8.196;2023-02-28T02:38:40;9.40;;;8.50;;
635;SDS011;302;50.206;8.196;2023-02-28T02:43:34;9.38;;;8.57;;
635;SDS011;302;50.206;8.196;2023-02-28T02:46:10;9.88;;;8.45;;
635;SDS011;302;50.206;8.196;2023-02-28T02:48:39;9.25;;;8.45;;
635;SDS011;302;50.206;8.196;2023-02-28T02:51:07;9.25;;;8.55;;
635;SDS011;302;50.206;8.196;2023-02-28T02:53:37;8.85;;;8.00;;
635;SDS011;302;50.206;8.196;2023-02-28T02:56:05;8.93;;;8.13;;
635;SDS011;302;50.206;8.196;2023-02-28T02:58:33;10.02;;;9.13;;
635;SDS011;302;50.206;8.196;2023-02-28T03:00:59;10.07;;;9.05;;
635;SDS011;302;50.206;8.196;2023-02-28T03:03:25;10.70;;;9.60;;
635;SDS011;302;50.206;8.196;2023-02-28T03:05:55;9.02;;;8.32;;
635;SDS011;302;50.206;8.196;2023-02-28T03:08:20;9.65;;;8.85;;
635;SDS011;302;50.206;8.196;2023-02-28T03:10:48;10.00;;;9.10;;
635;SDS011;302;50.206;8.196;2023-02-28T03:18:36;8.95;;;8.25;;
635;SDS011;302;50.206;8.196;2023-02-28T03:23:35;9.05;;;8.25;;
635;SDS011;302;50.206;8.196;2023-02-28T03:26:07;9.65;;;8.85;;
635;SDS011;302;50.206;8.196;2023-02-28T03:28:42;11.30;;;9.70;;
635;SDS011;302;50.206;8.196;2023-02-28T03:31:13;10.38;;;9.48;;
635;SDS011;302;50.206;8.196;2023-02-28T03:33:42;9.73;;;8.80;;
635;SDS011;302;50.206;8.196;2023-02-28T03:36:13;9.90;;;9.10;;
635;SDS011;302;50.206;8.196;2023-02-28T03:38:48;10.60;;;9.68;;
635;SDS011;302;50.206;8.196;2023-02-28T03:41:22;9.95;;;9.05;;
635;SDS011;302;50.206;8.196;2023-02-28T03:43:53;10.65;;;9.65;;
635;SDS011;302;50.206;8.196;2023-02-28T03:46:19;11.32;;;10.32;;
635;SDS011;302;50.206;8.196;2023-02-28T03:48:49;11.07;;;10.18;;
635;SDS011;302;50.206;8.196;2023-02-28T03:51:17;10.00;;;9.10;;
635;SDS011;302;50.206;8.196;2023-02-28T03:53:44;10.00;;;9.15;;
635;SDS011;302;50.206;8.196;2023-02-28T03:56:24;10.20;;;9.30;;
635;SDS011;302;50.206;8.196;2023-02-28T03:58:56;11.27;;;10.30;;
635;SDS011;302;50.206;8.196;2023-02-28T04:01:24;9.82;;;8.93;;
635;SDS011;302;50.206;8.196;2023-02-28T04:03:50;9.50;;;8.80;;
635;SDS011;302;50.206;8.196;2023-02-28T04:06:16;9.73;;;8.73;;
635;SDS011;302;50.206;8.196;2023-02-28T04:08:42;11.02;;;10.05;;
635;SDS011;302;50.206;8.196;2023-02-28T04:11:12;10.23;;;9.33;;
635;SDS011;302;50.206;8.196;2023-02-28T04:13:40;10.35;;;9.45;;
635;SDS011;302;50.206;8.196;2023-02-28T04:16:06;10.83;;;9.83;;
635;SDS011;302;50.206;8.196;2023-02-28T04:18:36;10.23;;;9.30;;
635;SDS011;302;50.206;8.196;2023-02-28T04:21:02;11.00;;;10.00;;
635;SDS011;302;50.206;8.196;2023-02-28T04:23:27;10.80;;;10.00;;
635;SDS011;302;50.206;8.196;2023-02-28T04:25:54;10.53;;;9.53;;
635;SDS011;302;50.206;8.196;2023-02-28T04:28:19;10.57;;;9.65;;
635;SDS011;302;50.206;8.196;2023-02-28T04:30:44;11.13;;;10.23;;
635;SDS011;302;50.206;8.196;2023-02-28T04:33:09;10.70;;;9.80;;
635;SDS011;302;50.206;8.196;2023-02-28T04:35:34;10.18;;;9.30;;
635;SDS011;302;50.206;8.196;2023-02-28T04:38:00;10.32;;;9.43;;
635;SDS011;302;50.206;8.196;2023-02-28T04:40:25;10.53;;;9.63;;
635;SDS011;302;50.206;8.196;2023-02-28T04:42:50;10.67;;;9.67;;
635;SDS011;302;50.206;8.196;2023-02-28T04:45:15;10.30;;;9.17;;
635;SDS011;302;50.206;8.196;2023-02-28T04:47:42;11.20;;;10.10;;
635;SDS011;302;50.206;8.196;2023-02-28T04:50:07;10.00;;;9.10;;
635;SDS011;302;50.206;8.196;2023-02-28T04:52:32;10.50;;;9.67;;
635;SDS011;302;50.206;8.196;2023-02-28T04:54:57;10.32;;;9.23;;
635;SDS011;302;50.206;8.196;2023-02-28T04:57:23;10.70;;;9.73;;
635;SDS011;302;50.206;8.196;2023-02-28T04:59:48;11.00;;;10.00;;
635;SDS011;302;50.206;8.196;2023-02-28T05:02:13;10.60;;;9.57;;
635;SDS011;302;50.206;8.196;2023-02-28T05:04:38;10.63;;;9.73;;
635;SDS011;302;50.206;8.196;2023-02-28T05:07:03;9.98;;;9.18;;
635;SDS011;302;50.206;8.196;2023-02-28T05:09:28;9.82;;;9.02;;
635;SDS011;302;50.206;8.196;2023-02-28T05:11:54;12.13;;;10.93;;
635;SDS011;302;50.206;8.196;2023-02-28T05:14:19;10.00;;;9.23;;
635;SDS011;302;50.206;8.196;2023-02-28T05:16:44;10.77;;;9.77;;
635;SDS011;302;50.206;8.196;2023-02-28T05:19:09;10.50;;;9.60;;
635;SDS011;302;50.206;8.196;2023-02-28T05:21:39;11.40;;;10.43;;
635;SDS011;302;50.206;8.196;2023-02-28T05:24:05;10.48;;;9.65;;
635;SDS011;302;50.206;8.196;2023-02-28T05:26:33;9.70;;;8.82;;
635;SDS011;302;50.206;8.196;2023-02-28T05:28:58;10.23;;;9.32;;
635;SDS011;302;50.206;8.196;2023-02-28T05:31:23;11.05;;;10.10;;
635;SDS011;302;50.206;8.196;2023-02-28T05:33:49;10.70;;;9.80;;
635;SDS011;302;50.206;8.196;2023-02-28T05:36:14;9.75;;;8.95;;
635;SDS011;302;50.206;8.196;2023-02-28T05:38:39;10.87;;;9.97;;
635;SDS011;302;50.206;8.196;2023-02-28T05:41:07;11.20;;;10.30;;
635;SDS011;302;50.206;8.196;2023-02-28T05:43:33;11.75;;;10.60;;
635;SDS011;302;50.206;8.196;2023-02-28T05:45:58;10.70;;;9.70;;
635;SDS011;302;50.206;8.196;2023-02-28T05:48:24;11.57;;;10.57;;
635;SDS011;302;50.206;8.196;2023-02-28T05:50:50;11.32;;;10.27;;
635;SDS011;302;50.206;8.196;2023-02-28T05:53:16;10.80;;;9.80;;
635;SDS011;302;50.206;8.196;2023-02-28T05:55:41;11.07;;;10.07;;
635;SDS011;302;50.206;8.196;2023-02-28T05:58:06;11.50;;;10.47;;
635;SDS011;302;50.206;8.196;2023-02-28T06:00:31;10.50;;;9.60;;
635;SDS011;302;50.206;8.196;2023-02-28T06:02:56;11.13;;;10.15;;
635;SDS011;302;50.206;8.196;2023-02-28T06:05:24;11.70;;;10.55;;
635;SDS011;302;50.206;8.196;2023-02-28T06:07:50;11.13;;;10.23;;
635;SDS011;302;50.206;8.196;2023-02-28T06:10:15;11.30;;;10.23;;
635;SDS011;302;50.206;8.196;2023-02-28T06:12:40;12.40;;;11.30;;
635;SDS011;302;50.206;8.196;2023-02-28T06:15:06;12.35;;;11.32;;
635;SDS011;302;50.206;8.196;2023-02-28T06:17:32;13.03;;;11.83;;
635;SDS011;302;50.206;8.196;2023-02-28T06:19:57;12.40;;;11.30;;
635;SDS011;302;50.206;8.196;2023-02-28T06:22:22;12.32;;;11.23;;
635;SDS011;302;50.206;8.196;2023-02-28T06:24:47;11.83;;;10.73;;
635;SDS011;302;50.206;8.196;2023-02-28T06:27:12;11.37;;;10.37;;
635;SDS011;302;50.206;8.196;2023-02-28T06:29:37;11.60;;;10.52;;
635;SDS011;302;50.206;8.196;2023-02-28T06:32:05;10.73;;;9.73;;
635;SDS011;302;50.206;8.196;2023-02-28T06:34:30;10.23;;;9.33;;
635;SDS011;302;50.206;8.196;2023-02-28T06:36:55;9.70;;;8.80;;
635;SDS011;302;50.206;8.196;2023-02-28T06:39:20;9.97;;;9.00;;
635;SDS011;302;50.206;8.196;2023-02-28T06:41:46;11.30;;;10.00;;
635;SDS011;302;50.206;8.196;2023-02-28T06:44:13;10.10;;;9.23;;
635;SDS011;302;50.206;8.196;2023-02-28T06:46:39;9.77;;;8.88;;
635;SDS011;302;50.206;8.196;2023-02-28T06:49:04;9.40;;;8.55;;
635;SDS011;302;50.206;8.196;2023-02-28T06:51:29;8.93;;;8.07;;
635;SDS011;302;50.206;8.196;2023-02-28T06:53:55;9.70;;;8.30;;
635;SDS011;302;50.206;8.196;2023-02-28T06:56:20;9.48;;;8.68;;
635;SDS011;302;50.206;8.196;2023-02-28T06:58:46;9.20;;;8.40;;
635;SDS011;302;50.206;8.196;2023-02-28T07:01:13;9.18;;;8.48;;
635;SDS011;302;50.206;8.196;2023-02-28T07:03:38;9.60;;;8.63;;
635;SDS011;302;50.206;8.196;2023-02-28T07:06:04;9.47;;;8.50;;
635;SDS011;302;50.206;8.196;2023-02-28T07:08:29;9.18;;;8.38;;
635;SDS011;302;50.206;8.196;2023-02-28T07:10:55;9.10;;;8.20;;
635;SDS011;302;50.206;8.196;2023-02-28T07:13:21;8.63;;;7.93;;
635;SDS011;302;50.206;8.196;2023-02-28T07:15:56;9.18;;;8.45;;
635;SDS011;302;50.206;8.196;2023-02-28T07:18:22;8.60;;;7.90;;
635;SDS011;302;50.206;8.196;2023-02-28T07:20:47;8.50;;;7.70;;
635;SDS011;302;50.206;8.196;2023-02-28T07:23:12;8.43;;;7.73;;
635;SDS011;302;50.206;8.196;2023-02-28T07:25:38;7.73;;;7.10;;
635;SDS011;302;50.206;8.196;2023-02-28T07:28:04;8.20;;;7.50;;
635;SDS011;302;50.206;8.196;2023-02-28T07:30:29;9.52;;;7.35;;
635;SDS011;302;50.206;8.196;2023-02-28T07:32:54;10.18;;;7.65;;
635;SDS011;302;50.206;8.196;2023-02-28T07:35:20;7.82;;;7.22;;
635;SDS011;302;50.206;8.196;2023-02-28T07:37:46;7.83;;;7.03;;
635;SDS011;302;50.206;8.196;2023-02-28T07:40:12;8.20;;;7.50;;
635;SDS011;302;50.206;8.196;2023-02-28T07:42:37;8.20;;;7.50;;
635;SDS011;302;50.206;8.196;2023-02-28T07:45:04;7.60;;;7.00;;
635;SDS011;302;50.206;8.196;2023-02-28T07:47:29;7.80;;;7.10;;
635;SDS011;302;50.206;8.196;2023-02-28T07:49:55;8.47;;;7.40;;
635;SDS011;302;50.206;8.196;2023-02-28T07:52:20;7.70;;;7.10;;
635;SDS011;302;50.206;8.196;2023-02-28T07:54:45;7.63;;;7.00;;
635;SDS011;302;50.206;8.196;2023-02-28T07:57:10;7.43;;;6.82;;
635;SDS011;302;50.206;8.196;2023-02-28T07:59:35;8.07;;;7.38;;
635;SDS011;302;50.206;8.196;2023-02-28T08:02:00;7.60;;;6.57;;
635;SDS011;302;50.206;8.196;2023-02-28T08:04:26;8.03;;;7.40;;
635;SDS011;302;50.206;8.196;2023-02-28T08:06:51;8.10;;;7.40;;
635;SDS011;302;50.206;8.196;2023-02-28T08:09:21;7.45;;;6.25;;
635;SDS011;302;50.206;8.196;2023-02-28T08:11:46;7.17;;;6.47;;
635;SDS011;302;50.206;8.196;2023-02-28T08:14:11;7.17;;;6.23;;
635;SDS011;302;50.206;8.196;2023-02-28T08:16:36;7.10;;;6.50;;
635;SDS011;302;50.206;8.196;2023-02-28T08:19:02;7.17;;;6.57;;
635;SDS011;302;50.206;8.196;2023-02-28T08:21:27;6.90;;;6.30;;
635;SDS011;302;50.206;8.196;2023-02-28T08:23:52;6.63;;;6.03;;
635;SDS011;302;50.206;8.196;2023-02-28T08:26:18;7.27;;;6.63;;
635;SDS011;302;50.206;8.196;2023-02-28T08:28:43;6.63;;;6.03;;
635;SDS011;302;50.206;8.196;2023-02-28T08:31:10;6.28;;;5.78;;
635;SDS011;302;50.206;8.196;2023-02-28T08:33:36;6.30;;;5.80;;
635;SDS011;302;50.206;8.196;2023-02-28T08:36:01;6.53;;;5.90;;
635;SDS011;302;50.206;8.196;2023-02-28T08:38:26;7.00;;;6.40;;
635;SDS011;302;50.206;8.196;2023-02-28T08:40:58;7.07;;;6.38;;
635;SDS011;302;50.206;8.196;2023-02-28T08:43:24;6.20;;;5.70;;
635;SDS011;302;50.206;8.196;2023-02-28T08:45:53;6.57;;;6.00;;
635;SDS011;302;50.206;8.196;2023-02-28T08:48:18;6.03;;;5.47;;
635;SDS011;302;50.206;8.196;2023-02-28T08:50:43;6.60;;;5.90;;
635;SDS011;302;50.206;8.196;2023-02-28T08:53:09;5.45;;;5.05;;
635;SDS011;302;50.206;8.196;2023-02-28T08:55:34;5.30;;;4.90;;
635;SDS011;302;50.206;8.196;2023-02-28T08:57:59;6.27;;;5.67;;
635;SDS011;302;50.206;8.196;2023-02-28T09:00:26;6.00;;;5.30;;
635;SDS011;302;50.206;8.196;2023-02-28T09:02:51;6.17;;;5.67;;
635;SDS011;302;50.206;8.196;2023-02-28T09:05:16;5.83;;;5.30;;
635;SDS011;302;50.206;8.196;2023-02-28T09:07:41;6.20;;;5.70;;
635;SDS011;302;50.206;8.196;2023-02-28T09:10:07;5.97;;;5.40;;
635;SDS011;302;50.206;8.196;2023-02-28T09:12:33;6.17;;;5.63;;
635;SDS011;302;50.206;8.196;2023-02-28T09:14:59;5.95;;;5.35;;
635;SDS011;302;50.206;8.196;2023-02-28T09:17:24;6.20;;;5.70;;
635;SDS011;302;50.206;8.196;2023-02-28T09:19:49;5.97;;;5.45;;
635;SDS011;302;50.206;8.196;2023-02-28T09:22:15;5.10;;;4.70;;
635;SDS011;302;50.206;8.196;2023-02-28T09:24:40;7.50;;;5.50;;
635;SDS011;302;50.206;8.196;2023-02-28T09:27:06;6.07;;;5.47;;
635;SDS011;302;50.206;8.196;2023-02-28T09:29:32;5.20;;;4.70;;
635;SDS011;302;50.206;8.196;2023-02-28T09:31:57;5.35;;;4.85;;
635;SDS011;302;50.206;8.196;2023-02-28T09:34:23;5.60;;;5.10;;
635;SDS011;302;50.206;8.196;2023-02-28T09:36:48;5.87;;;5.37;;
635;SDS011;302;50.206;8.196;2023-02-28T09:39:15;5.50;;;5.00;;
635;SDS011;302;50.206;8.196;2023-02-28T09:41:42;5.63;;;5.23;;
635;SDS011;302;50.206;8.196;2023-02-28T09:44:20;5.13;;;4.72;;
635;SDS011;302;50.206;8.196;2023-02-28T09:46:48;5.18;;;4.78;;
635;SDS011;302;50.206;8.196;2023-02-28T09:49:16;5.28;;;4.88;;
635;SDS011;302;50.206;8.196;2023-02-28T09:54:13;5.20;;;4.80;;
635;SDS011;302;50.206;8.196;2023-02-28T09:56:42;5.22;;;4.82;;
635;SDS011;302;50.206;8.196;2023-02-28T09:59:24;6.30;;;5.70;;
635;SDS011;302;50.206;8.196;2023-02-28T10:04:58;6.57;;;5.97;;
635;SDS011;302;50.206;8.196;2023-02-28T10:10:17;5.35;;;4.95;;
635;SDS011;302;50.206;8.196;2023-02-28T10:12:43;6.22;;;5.70;;
635;SDS011;302;50.206;8.196;2023-02-28T10:15:12;5.28;;;4.95;;
635;SDS011;302;50.206;8.196;2023-02-28T10:17:40;5.82;;;5.43;;
635;SDS011;302;50.206;8.196;2023-02-28T10:20:09;6.43;;;5.93;;
635;SDS011;302;50.206;8.196;2023-02-28T10:25:08;5.13;;;4.72;;
635;SDS011;302;50.206;8.196;2023-02-28T10:27:40;6.13;;;5.63;;
635;SDS011;302;50.206;8.196;2023-02-28T10:30:05;6.22;;;5.63;;
635;SDS011;302;50.206;8.196;2023-02-28T10:32:31;5.20;;;4.90;;
635;SDS011;302;50.206;8.196;2023-02-28T10:34:59;5.60;;;5.10;;
635;SDS011;302;50.206;8.196;2023-02-28T10:37:25;6.10;;;5.60;;
635;SDS011;302;50.206;8.196;2023-02-28T10:39:50;5.30;;;4.90;;
635;SDS011;302;50.206;8.196;2023-02-28T10:44:43;5.82;;;5.38;;
635;SDS011;302;50.206;8.196;2023-02-28T10:47:13;6.10;;;5.60;;
635;SDS011;302;50.206;8.196;2023-02-28T10:49:39;5.50;;;5.00;;
635;SDS011;302;50.206;8.196;2023-02-28T10:52:11;5.78;;;5.38;;
635;SDS011;302;50.206;8.196;2023-02-28T10:54:36;5.97;;;5.47;;
635;SDS011;302;50.206;8.196;2023-02-28T10:57:19;6.10;;;5.60;;
635;SDS011;302;50.206;8.196;2023-02-28T10:59:44;6.55;;;6.15;;
635;SDS011;302;50.206;8.196;2023-02-28T11:07:52;6.80;;;6.30;;
635;SDS011;302;50.206;8.196;2023-02-28T11:10:19;6.28;;;5.85;;
635;SDS011;302;50.206;8.196;2023-02-28T11:12:45;6.40;;;5.80;;
635;SDS011;302;50.206;8.196;2023-02-28T11:15:27;5.93;;;5.43;;
635;SDS011;302;50.206;8.196;2023-02-28T11:18:00;5.80;;;5.40;;
635;SDS011;302;50.206;8.196;2023-02-28T11:20:26;5.88;;;5.47;;
635;SDS011;302;50.206;8.196;2023-02-28T11:22:52;6.07;;;5.57;;
635;SDS011;302;50.206;8.196;2023-02-28T11:27:46;5.50;;;5.10;;
635;SDS011;302;50.206;8.196;2023-02-28T11:32:49;5.03;;;4.57;;
635;SDS011;302;50.206;8.196;2023-02-28T11:35:17;6.17;;;5.67;;
635;SDS011;302;50.206;8.196;2023-02-28T11:37:42;6.25;;;5.75;;
635;SDS011;302;50.206;8.196;2023-02-28T11:40:14;6.50;;;6.00;;
635;SDS011;302;50.206;8.196;2023-02-28T11:50:20;6.10;;;5.60;;
635;SDS011;302;50.206;8.196;2023-02-28T11:52:55;5.97;;;5.38;;
635;SDS011;302;50.206;8.196;2023-02-28T11:55:24;6.10;;;5.60;;
635;SDS011;302;50.206;8.196;2023-02-28T11:57:56;5.88;;;5.38;;
635;SDS011;302;50.206;8.196;2023-02-28T12:00:44;5.57;;;5.18;;
635;SDS011;302;50.206;8.196;2023-02-28T12:05:57;6.40;;;5.90;;
635;SDS011;302;50.206;8.196;2023-02-28T12:08:35;6.20;;;5.70;;
635;SDS011;302;50.206;8.196;2023-02-28T12:16:45;6.82;;;6.22;;
635;SDS011;302;50.206;8.196;2023-02-28T12:19:16;7.10;;;6.40;;
635;SDS011;302;50.206;8.196;2023-02-28T12:21:53;5.82;;;5.40;;
635;SDS011;302;50.206;8.196;2023-02-28T12:24:28;5.88;;;5.38;;
635;SDS011;302;50.206;8.196;2023-02-28T12:26:58;6.60;;;6.10;;
635;SDS011;302;50.206;8.196;2023-02-28T12:29:29;7.03;;;6.40;;
635;SDS011;302;50.206;8.196;2023-02-28T12:31:56;7.20;;;6.60;;
635;SDS011;302;50.206;8.196;2023-02-28T12:34:25;6.53;;;6.07;;
635;SDS011;302;50.206;8.196;2023-02-28T12:36:52;6.60;;;6.10;;
635;SDS011;302;50.206;8.196;2023-02-28T12:39:20;6.53;;;6.00;;
635;SDS011;302;50.206;8.196;2023-02-28T12:41:56;6.72;;;6.22;;
635;SDS011;302;50.206;8.196;2023-02-28T12:44:27;7.90;;;7.10;;
635;SDS011;302;50.206;8.196;2023-02-28T12:46:56;7.00;;;6.45;;
635;SDS011;302;50.206;8.196;2023-02-28T12:49:31;7.15;;;6.55;;
635;SDS011;302;50.206;8.196;2023-02-28T12:51:58;7.40;;;6.82;;
635;SDS011;302;50.206;8.196;2023-02-28T12:54:33;6.97;;;6.35;;
635;SDS011;302;50.206;8.196;2023-02-28T12:57:14;6.72;;;6.22;;
635;SDS011;302;50.206;8.196;2023-02-28T13:00:00;8.02;;;7.22;;
635;SDS011;302;50.206;8.196;2023-02-28T13:05:02;8.57;;;7.93;;
635;SDS011;302;50.206;8.196;2023-02-28T13:07:43;7.50;;;6.90;;
635;SDS011;302;50.206;8.196;2023-02-28T13:10:11;7.97;;;7.32;;
635;SDS011;302;50.206;8.196;2023-02-28T13:12:41;8.50;;;7.70;;
635;SDS011;302;50.206;8.196;2023-02-28T13:15:27;7.47;;;6.85;;
635;SDS011;302;50.206;8.196;2023-02-28T13:17:59;8.40;;;7.72;;
635;SDS011;302;50.206;8.196;2023-02-28T13:20:26;8.43;;;7.73;;
635;SDS011;302;50.206;8.196;2023-02-28T13:22:52;7.55;;;7.03;;
635;SDS011;302;50.206;8.196;2023-02-28T13:27:46;7.72;;;7.22;;
635;SDS011;302;50.206;8.196;2023-02-28T13:35:43;7.88;;;7.18;;
635;SDS011;302;50.206;8.196;2023-02-28T13:38:13;7.88;;;7.28;;
635;SDS011;302;50.206;8.196;2023-02-28T13:40:40;7.53;;;6.97;;
635;SDS011;302;50.206;8.196;2023-02-28T13:43:07;8.33;;;7.53;;
635;SDS011;302;50.206;8.196;2023-02-28T13:45:32;8.35;;;7.75;;
635;SDS011;302;50.206;8.196;2023-02-28T13:48:04;7.72;;;7.03;;
635;SDS011;302;50.206;8.196;2023-02-28T13:58:25;7.43;;;6.82;;
635;SDS011;302;50.206;8.196;2023-02-28T14:06:14;7.15;;;6.45;;
635;SDS011;302;50.206;8.196;2023-02-28T14:08:45;7.20;;;6.70;;
635;SDS011;302;50.206;8.196;2023-02-28T14:11:23;6.47;;;6.07;;
635;SDS011;302;50.206;8.196;2023-02-28T14:13:49;9.37;;;6.97;;
635;SDS011;302;50.206;8.196;2023-02-28T14:16:25;6.90;;;6.30;;
635;SDS011;302;50.206;8.196;2023-02-28T14:18:58;6.13;;;5.63;;
635;SDS011;302;50.206;8.196;2023-02-28T14:21:32;7.40;;;6.70;;
635;SDS011;302;50.206;8.196;2023-02-28T14:26:36;7.00;;;6.50;;
635;SDS011;302;50.206;8.196;2023-02-28T14:29:11;6.60;;;6.10;;
635;SDS011;302;50.206;8.196;2023-02-28T14:31:41;7.10;;;6.50;;
635;SDS011;302;50.206;8.196;2023-02-28T14:36:43;7.17;;;6.50;;
635;SDS011;302;50.206;8.196;2023-02-28T14:39:11;6.67;;;6.07;;
635;SDS011;302;50.206;8.196;2023-02-28T14:41:38;6.00;;;5.50;;
635;SDS011;302;50.206;8.196;2023-02-28T14:44:20;7.20;;;6.27;;
635;SDS011;302;50.206;8.196;2023-02-28T14:46:46;6.27;;;5.87;;
635;SDS011;302;50.206;8.196;2023-02-28T14:49:16;5.93;;;5.43;;
635;SDS011;302;50.206;8.196;2023-02-28T14:51:41;6.90;;;6.40;;
635;SDS011;302;50.206;8.196;2023-02-28T14:54:06;6.10;;;5.50;;
635;SDS011;302;50.206;8.196;2023-02-28T14:56:35;6.77;;;6.17;;
635;SDS011;302;50.206;8.196;2023-02-28T14:59:01;6.37;;;5.87;;
635;SDS011;302;50.206;8.196;2023-02-28T15:01:27;6.23;;;5.73;;
635;SDS011;302;50.206;8.196;2023-02-28T15:04:00;6.20;;;5.80;;
635;SDS011;302;50.206;8.196;2023-02-28T15:06:26;7.30;;;6.60;;
635;SDS011;302;50.206;8.196;2023-02-28T15:09:07;6.50;;;5.87;;
635;SDS011;302;50.206;8.196;2023-02-28T15:11:32;5.90;;;5.40;;
635;SDS011;302;50.206;8.196;2023-02-28T15:13:58;6.13;;;5.53;;
635;SDS011;302;50.206;8.196;2023-02-28T15:16:36;6.77;;;6.17;;
635;SDS011;302;50.206;8.196;2023-02-28T15:19:18;6.00;;;5.60;;
635;SDS011;302;50.206;8.196;2023-02-28T15:21:46;6.03;;;5.53;;
635;SDS011;302;50.206;8.196;2023-02-28T15:24:15;6.70;;;6.10;;
635;SDS011;302;50.206;8.196;2023-02-28T15:26:42;7.10;;;6.50;;
635;SDS011;302;50.206;8.196;2023-02-28T15:29:11;6.20;;;5.70;;
635;SDS011;302;50.206;8.196;2023-02-28T15:31:45;7.00;;;6.30;;
635;SDS011;302;50.206;8.196;2023-02-28T15:34:27;7.37;;;6.77;;
635;SDS011;302;50.206;8.196;2023-02-28T15:36:53;6.63;;;6.13;;
635;SDS011;302;50.206;8.196;2023-02-28T15:39:19;6.60;;;6.07;;
635;SDS011;302;50.206;8.196;2023-02-28T15:41:45;7.40;;;6.83;;
635;SDS011;302;50.206;8.196;2023-02-28T15:44:13;7.53;;;6.50;;
635;SDS011;302;50.206;8.196;2023-02-28T15:46:39;7.83;;;7.03;;
635;SDS011;302;50.206;8.196;2023-02-28T15:49:12;7.17;;;6.60;;
635;SDS011;302;50.206;8.196;2023-02-28T15:51:38;6.77;;;6.27;;
635;SDS011;302;50.206;8.196;2023-02-28T15:54:07;6.20;;;5.60;;
635;SDS011;302;50.206;8.196;2023-02-28T15:56:37;6.47;;;5.87;;
635;SDS011;302;50.206;8.196;2023-02-28T15:59:07;6.93;;;6.33;;
635;SDS011;302;50.206;8.196;2023-02-28T16:01:38;6.93;;;6.33;;
635;SDS011;302;50.206;8.196;2023-02-28T16:04:05;7.40;;;6.70;;
635;SDS011;302;50.206;8.196;2023-02-28T16:06:34;6.70;;;6.10;;
635;SDS011;302;50.206;8.196;2023-02-28T16:08:59;7.70;;;7.00;;
635;SDS011;302;50.206;8.196;2023-02-28T16:11:25;7.40;;;6.70;;
635;SDS011;302;50.206;8.196;2023-02-28T16:13:50;7.60;;;6.90;;
635;SDS011;302;50.206;8.196;2023-02-28T16:16:17;7.30;;;6.68;;
635;SDS011;302;50.206;8.196;2023-02-28T16:18:42;7.70;;;7.20;;
635;SDS011;302;50.206;8.196;2023-02-28T16:21:08;8.30;;;7.60;;
635;SDS011;302;50.206;8.196;2023-02-28T16:23:33;8.13;;;7.43;;
635;SDS011;302;50.206;8.196;2023-02-28T16:25:58;7.40;;;6.90;;
635;SDS011;302;50.206;8.196;2023-02-28T16:28:24;7.57;;;7.07;;
635;SDS011;302;50.206;8.196;2023-02-28T16:30:51;7.47;;;6.80;;
635;SDS011;302;50.206;8.196;2023-02-28T16:33:16;7.90;;;7.30;;
635;SDS011;302;50.206;8.196;2023-02-28T16:35:41;7.35;;;6.72;;
635;SDS011;302;50.206;8.196;2023-02-28T16:38:06;7.53;;;6.50;;
635;SDS011;302;50.206;8.196;2023-02-28T16:40:33;7.90;;;7.25;;
635;SDS011;302;50.206;8.196;2023-02-28T16:42:58;7.40;;;6.80;;
635;SDS011;302;50.206;8.196;2023-02-28T16:45:25;7.07;;;6.47;;
635;SDS011;302;50.206;8.196;2023-02-28T16:47:51;7.63;;;6.97;;
635;SDS011;302;50.206;8.196;2023-02-28T16:50:27;7.80;;;7.10;;
635;SDS011;302;50.206;8.196;2023-02-28T16:52:52;7.13;;;6.63;;
635;SDS011;302;50.206;8.196;2023-02-28T16:55:19;7.55;;;6.85;;
635;SDS011;302;50.206;8.196;2023-02-28T16:57:44;7.40;;;6.77;;
635;SDS011;302;50.206;8.196;2023-02-28T17:00:12;7.65;;;6.95;;
635;SDS011;302;50.206;8.196;2023-02-28T17:02:37;7.18;;;6.60;;
635;SDS011;302;50.206;8.196;2023-02-28T17:05:03;8.05;;;7.45;;
635;SDS011;302;50.206;8.196;2023-02-28T17:07:28;11.07;;;10.13;;
635;SDS011;302;50.206;8.196;2023-02-28T17:09:53;8.65;;;7.95;;
635;SDS011;302;50.206;8.196;2023-02-28T17:12:18;10.40;;;9.50;;
635;SDS011;302;50.206;8.196;2023-02-28T17:14:44;8.80;;;8.10;;
635;SDS011;302;50.206;8.196;2023-02-28T17:17:10;7.60;;;6.90;;